Time;durP1;ratioP1;P1;durP2;ratioP2;P2;SDS_P1;SDS_P2;PMS_P1;PMS_P2;Temp;Humidity;BMP_temperature;BMP_pressure;BME280_temperature;BME280_humidity;BME280_pressure;Samples;Min_cycle;Max_cycle;Signal;HPM_P1;HPM_P2
2022/03/31 00:03:45;;;;;;;16.98;9.60;;;;;;;;;;10155650;29;20084;-65
2022/03/31 00:08:47;;;;;;;17.27;9.07;;;;;;;;;;10156140;29;20044;-67
2022/03/31 00:13:51;;;;;;;19.75;9.20;;;;;;;;;;10157149;29;20056;-67
2022/03/31 00:18:53;;;;;;;17.90;9.02;;;;;;;;;;10156750;29;20343;-66
2022/03/31 00:23:55;;;;;;;14.85;8.60;;;;;;;;;;10156423;29;20244;-66
2022/03/31 00:28:59;;;;;;;27.55;10.27;;;;;;;;;;10156092;29;20048;-67
2022/03/31 00:34:02;;;;;;;15.10;8.55;;;;;;;;;;10156228;29;20056;-66
2022/03/31 00:44:25;;;;;;;16.38;8.27;;;;;;;;;;10167565;29;20048;-66
2022/03/31 00:49:29;;;;;;;16.65;8.27;;;;;;;;;;10155926;29;20052;-67
2022/03/31 00:54:33;;;;;;;14.52;8.25;;;;;;;;;;10155315;29;20257;-66
2022/03/31 00:59:37;;;;;;;14.27;8.25;;;;;;;;;;10153558;29;20052;-65
2022/03/31 01:04:41;;;;;;;14.10;8.20;;;;;;;;;;10122445;29;20060;-67
2022/03/31 01:09:43;;;;;;;13.35;7.32;;;;;;;;;;10120415;29;20067;-66
2022/03/31 01:14:47;;;;;;;11.60;7.00;;;;;;;;;;10154587;29;20387;-66
2022/03/31 01:19:49;;;;;;;14.15;7.45;;;;;;;;;;10154891;29;20063;-66
2022/03/31 01:24:54;;;;;;;12.13;6.97;;;;;;;;;;10154266;29;20051;-66
2022/03/31 01:29:56;;;;;;;13.02;6.95;;;;;;;;;;10154344;29;20285;-65
2022/03/31 01:34:59;;;;;;;14.75;7.57;;;;;;;;;;10152821;29;20045;-67
2022/03/31 01:40:03;;;;;;;14.15;6.13;;;;;;;;;;10128349;29;20072;-67
2022/03/31 01:45:10;;;;;;;12.60;5.60;;;;;;;;;;10114310;29;20045;-68
2022/03/31 01:50:13;;;;;;;12.02;6.55;;;;;;;;;;10126967;29;20053;-66
2022/03/31 01:55:17;;;;;;;11.38;5.30;;;;;;;;;;10146724;29;20052;-67
2022/03/31 02:00:20;;;;;;;11.18;6.38;;;;;;;;;;10165444;29;20049;-67
2022/03/31 02:05:23;;;;;;;11.10;6.05;;;;;;;;;;10151998;29;20304;-67
2022/03/31 02:10:27;;;;;;;7.90;5.20;;;;;;;;;;10151367;29;20044;-67
2022/03/31 02:15:30;;;;;;;8.30;5.13;;;;;;;;;;10151138;29;20246;-67
2022/03/31 02:20:33;;;;;;;14.07;5.82;;;;;;;;;;10151077;29;20057;-66
2022/03/31 02:25:38;;;;;;;8.07;5.57;;;;;;;;;;10151994;29;20064;-66
2022/03/31 02:30:41;;;;;;;9.95;5.65;;;;;;;;;;10164486;29;20044;-66
2022/03/31 02:35:43;;;;;;;6.65;4.88;;;;;;;;;;10138434;29;20300;-66
2022/03/31 02:40:47;;;;;;;8.13;5.10;;;;;;;;;;10168211;29;20040;-66
2022/03/31 02:45:49;;;;;;;7.18;4.82;;;;;;;;;;10150733;29;20228;-66
2022/03/31 02:50:51;;;;;;;9.48;5.13;;;;;;;;;;10150723;29;20064;-66
2022/03/31 02:55:55;;;;;;;9.48;4.60;;;;;;;;;;10150831;29;20044;-66
2022/03/31 03:00:57;;;;;;;12.07;5.32;;;;;;;;;;10151063;29;20049;-66
2022/03/31 03:06:01;;;;;;;9.13;5.00;;;;;;;;;;10151629;29;20064;-67
2022/03/31 03:11:05;;;;;;;8.27;5.25;;;;;;;;;;10150447;29;20064;-66
2022/03/31 03:16:08;;;;;;;7.22;5.20;;;;;;;;;;10150539;29;20044;-66
2022/03/31 03:21:10;;;;;;;12.07;5.60;;;;;;;;;;10151925;29;20097;-66
2022/03/31 03:26:14;;;;;;;11.38;4.85;;;;;;;;;;10159553;29;20407;-67
2022/03/31 03:31:16;;;;;;;6.65;4.72;;;;;;;;;;10158467;29;20364;-66
2022/03/31 03:36:18;;;;;;;8.20;5.25;;;;;;;;;;10156548;29;20052;-67
2022/03/31 03:41:22;;;;;;;6.82;4.88;;;;;;;;;;10157885;29;20056;-66
2022/03/31 03:46:24;;;;;;;7.90;4.95;;;;;;;;;;10158315;29;20100;-67
2022/03/31 03:51:27;;;;;;;6.70;5.00;;;;;;;;;;10159831;29;20044;-66
2022/03/31 03:56:33;;;;;;;7.00;4.80;;;;;;;;;;10157670;29;20049;-66
2022/03/31 04:01:36;;;;;;;7.10;4.68;;;;;;;;;;10158191;29;20053;-66
2022/03/31 04:06:39;;;;;;;8.45;5.00;;;;;;;;;;10157272;29;20068;-67
2022/03/31 04:11:42;;;;;;;8.80;4.10;;;;;;;;;;10155616;29;20070;-67
2022/03/31 04:16:45;;;;;;;8.88;4.90;;;;;;;;;;10156466;29;20092;-67
2022/03/31 04:21:47;;;;;;;6.57;4.88;;;;;;;;;;10155911;29;20221;-69
2022/03/31 04:26:51;;;;;;;10.63;5.47;;;;;;;;;;10154388;29;20040;-66
2022/03/31 04:31:53;;;;;;;10.05;5.03;;;;;;;;;;10155042;29;20064;-67
2022/03/31 04:36:55;;;;;;;5.63;4.63;;;;;;;;;;10155964;29;20045;-66
2022/03/31 04:41:59;;;;;;;9.50;5.40;;;;;;;;;;10154154;29;20052;-66
2022/03/31 04:47:01;;;;;;;6.80;5.18;;;;;;;;;;10154591;29;20053;-66
2022/03/31 04:52:06;;;;;;;7.25;4.63;;;;;;;;;;10154215;29;20087;-66
2022/03/31 04:57:09;;;;;;;6.18;4.80;;;;;;;;;;10154280;29;20052;-66
2022/03/31 05:02:12;;;;;;;6.90;5.13;;;;;;;;;;10154063;29;20078;-67
2022/03/31 05:07:15;;;;;;;16.05;5.03;;;;;;;;;;10153294;29;20064;-67
2022/03/31 05:12:19;;;;;;;7.57;4.95;;;;;;;;;;10147459;29;20045;-66
2022/03/31 05:17:21;;;;;;;12.13;5.07;;;;;;;;;;10145564;29;20040;-68
2022/03/31 05:22:23;;;;;;;8.15;4.57;;;;;;;;;;10153825;29;20053;-67
2022/03/31 05:27:27;;;;;;;6.07;4.20;;;;;;;;;;10152480;29;20049;-66
2022/03/31 05:32:29;;;;;;;5.88;3.92;;;;;;;;;;10153897;29;20069;-66
2022/03/31 05:37:33;;;;;;;7.90;4.05;;;;;;;;;;10153716;29;20187;-67
2022/03/31 05:42:37;;;;;;;5.10;3.80;;;;;;;;;;10130150;29;20109;-67
2022/03/31 05:47:40;;;;;;;11.55;3.58;;;;;;;;;;10151090;29;20044;-67
2022/03/31 05:52:43;;;;;;;8.90;3.83;;;;;;;;;;10152370;29;20055;-67
2022/03/31 05:57:47;;;;;;;5.15;3.53;;;;;;;;;;10151494;29;20048;-67
2022/03/31 06:02:50;;;;;;;;;;;;;;;;;;10152526;29;20312;-67
2022/03/31 06:07:53;;;;;;;4.82;3.30;;;;;;;;;;10152112;29;19927;-67
2022/03/31 06:12:57;;;;;;;6.67;3.17;;;;;;;;;;10151838;29;20391;-67
2022/03/31 06:17:59;;;;;;;5.32;3.20;;;;;;;;;;10151875;29;20101;-67
2022/03/31 06:23:02;;;;;;;4.70;3.35;;;;;;;;;;10151943;29;20056;-66
2022/03/31 06:28:07;;;;;;;4.63;2.67;;;;;;;;;;10150846;29;20049;-67
2022/03/31 06:33:09;;;;;;;5.93;3.22;;;;;;;;;;10150114;29;20138;-66
2022/03/31 06:38:12;;;;;;;4.85;2.97;;;;;;;;;;10151424;29;20044;-67
2022/03/31 06:43:16;;;;;;;10.80;3.38;;;;;;;;;;10151335;29;20048;-66
2022/03/31 06:48:18;;;;;;;6.72;3.60;;;;;;;;;;10149240;29;20386;-67
2022/03/31 06:53:20;;;;;;;4.72;3.17;;;;;;;;;;10150853;29;20059;-67
2022/03/31 06:58:25;;;;;;;7.78;3.17;;;;;;;;;;10157542;29;20367;-67
2022/03/31 07:03:28;;;;;;;7.60;3.20;;;;;;;;;;10157171;29;20063;-66
2022/03/31 07:08:32;;;;;;;6.60;3.38;;;;;;;;;;10170913;29;20344;-67
2022/03/31 07:13:36;;;;;;;6.20;3.40;;;;;;;;;;10158541;29;20053;-67
2022/03/31 07:18:38;;;;;;;23.95;4.15;;;;;;;;;;10157880;29;20056;-67
2022/03/31 07:23:41;;;;;;;;;;;;;;;;;;10158141;29;20056;-67
2022/03/31 07:28:45;;;;;;;;;;;;;;;;;;10158642;29;19942;-66
2022/03/31 07:33:47;;;;;;;6.75;3.60;;;;;;;;;;10156454;29;19967;-67
2022/03/31 07:38:49;;;;;;;;;;;;;;;;;;10158152;29;20052;-67
2022/03/31 07:43:52;;;;;;;24.17;4.20;;;;;;;;;;10157190;29;20191;-67
2022/03/31 07:48:55;;;;;;;9.90;3.60;;;;;;;;;;10156537;29;20235;-68
2022/03/31 07:53:58;;;;;;;17.17;3.60;;;;;;;;;;10155990;29;20057;-68
2022/03/31 07:59:02;;;;;;;5.47;3.28;;;;;;;;;;10122388;29;20609;-67
2022/03/31 08:04:06;;;;;;;8.63;3.25;;;;;;;;;;10154944;29;20079;-67
2022/03/31 08:09:10;;;;;;;5.38;2.80;;;;;;;;;;10138337;29;20053;-67
2022/03/31 08:14:16;;;;;;;7.55;2.75;;;;;;;;;;10146898;29;20085;-66
2022/03/31 08:19:20;;;;;;;6.15;2.78;;;;;;;;;;10147512;29;20244;-67
2022/03/31 08:24:23;;;;;;;10.35;3.17;;;;;;;;;;10121257;29;20068;-67
2022/03/31 08:29:27;;;;;;;3.58;2.90;;;;;;;;;;10146726;29;20053;-67
2022/03/31 08:34:29;;;;;;;9.07;2.95;;;;;;;;;;10154684;29;20343;-67
2022/03/31 08:39:31;;;;;;;9.40;2.78;;;;;;;;;;10156186;29;20045;-66
2022/03/31 08:44:37;;;;;;;7.18;2.88;;;;;;;;;;10152942;29;20048;-66
2022/03/31 08:49:39;;;;;;;7.38;2.80;;;;;;;;;;10151878;29;20348;-66
2022/03/31 08:54:43;;;;;;;6.35;3.13;;;;;;;;;;10134688;29;20048;-69
2022/03/31 08:59:46;;;;;;;3.60;2.40;;;;;;;;;;10151242;29;20044;-66
2022/03/31 09:05:01;;;;;;;6.10;2.88;;;;;;;;;;10151036;29;20137;-66
2022/03/31 09:10:06;;;;;;;6.80;2.63;;;;;;;;;;10152050;29;20044;-66
2022/03/31 09:15:11;;;;;;;8.80;2.60;;;;;;;;;;10152375;29;20049;-66
2022/03/31 09:20:13;;;;;;;14.93;2.83;;;;;;;;;;10147167;29;20045;-66
2022/03/31 09:25:24;;;;;;;6.15;2.70;;;;;;;;;;10149581;29;20041;-67
2022/03/31 09:30:28;;;;;;;11.65;3.15;;;;;;;;;;10164766;29;20331;-67
2022/03/31 09:35:30;;;;;;;15.15;3.22;;;;;;;;;;10150882;29;20044;-65
2022/03/31 09:40:36;;;;;;;5.80;3.05;;;;;;;;;;10151435;29;20285;-67
2022/03/31 09:45:41;;;;;;;16.40;3.97;;;;;;;;;;10138769;29;20135;-66
2022/03/31 09:50:44;;;;;;;10.48;3.85;;;;;;;;;;10158267;29;20040;-65
2022/03/31 09:55:47;;;;;;;5.75;2.90;;;;;;;;;;10151516;29;20056;-66
2022/03/31 10:00:51;;;;;;;9.55;2.90;;;;;;;;;;10150083;29;20060;-67
2022/03/31 10:05:54;;;;;;;13.10;4.20;;;;;;;;;;10143895;29;20289;-67
2022/03/31 10:10:59;;;;;;;4.60;3.17;;;;;;;;;;10149056;29;20056;-71
2022/03/31 10:16:08;;;;;;;17.27;3.47;;;;;;;;;;10144085;29;20214;-71
2022/03/31 10:21:11;;;;;;;9.15;3.50;;;;;;;;;;10161705;29;20048;-67
2022/03/31 10:26:25;;;;;;;6.35;3.10;;;;;;;;;;10150894;29;20346;-67
2022/03/31 10:31:36;;;;;;;7.80;3.30;;;;;;;;;;10144502;29;20080;-66
2022/03/31 10:36:40;;;;;;;6.10;3.53;;;;;;;;;;10150415;29;20081;-66
2022/03/31 10:41:44;;;;;;;11.03;3.13;;;;;;;;;;10149899;29;20041;-65
2022/03/31 10:47:00;;;;;;;8.93;3.45;;;;;;;;;;10149697;29;20044;-65
2022/03/31 10:52:14;;;;;;;12.40;3.15;;;;;;;;;;10136701;29;20335;-66
2022/03/31 10:57:17;;;;;;;12.32;3.10;;;;;;;;;;10148086;29;20073;-69
2022/03/31 11:02:22;;;;;;;7.60;3.30;;;;;;;;;;10150132;29;20055;-66
2022/03/31 11:07:27;;;;;;;5.72;3.28;;;;;;;;;;10149026;29;20124;-67
2022/03/31 11:12:31;;;;;;;7.20;3.47;;;;;;;;;;10146411;29;20060;-66
2022/03/31 11:17:37;;;;;;;12.63;2.90;;;;;;;;;;10148877;29;20045;-66
2022/03/31 11:22:39;;;;;;;;;;;;;;;;;;10161446;29;20049;-65
2022/03/31 11:27:42;;;;;;;5.32;2.88;;;;;;;;;;10149152;29;19919;-65
2022/03/31 11:32:48;;;;;;;6.15;2.90;;;;;;;;;;10148740;29;20036;-66
2022/03/31 11:37:52;;;;;;;6.25;2.95;;;;;;;;;;10148142;29;20201;-66
2022/03/31 11:42:57;;;;;;;11.02;3.85;;;;;;;;;;10149648;29;20055;-65
2022/03/31 11:48:03;;;;;;;9.35;3.50;;;;;;;;;;10153835;29;20041;-64
2022/03/31 11:53:17;;;;;;;5.78;2.95;;;;;;;;;;10155957;29;20466;-63
2022/03/31 11:58:19;;;;;;;6.35;3.45;;;;;;;;;;10145783;29;20057;-66
2022/03/31 12:03:24;;;;;;;4.80;2.72;;;;;;;;;;10146635;29;20068;-64
2022/03/31 12:08:27;;;;;;;6.43;2.80;;;;;;;;;;10148566;29;20075;-68
2022/03/31 12:13:30;;;;;;;7.30;2.85;;;;;;;;;;10149796;29;20052;-65
2022/03/31 12:18:35;;;;;;;4.65;2.78;;;;;;;;;;10148291;29;20049;-66
2022/03/31 12:23:42;;;;;;;13.80;2.80;;;;;;;;;;10161025;29;20339;-67
2022/03/31 12:28:46;;;;;;;5.88;3.03;;;;;;;;;;10141853;29;20048;-67
2022/03/31 12:33:52;;;;;;;6.60;2.80;;;;;;;;;;10148833;29;20100;-66
2022/03/31 12:38:55;;;;;;;2.88;2.58;;;;;;;;;;10160392;29;20040;-66
2022/03/31 12:44:04;;;;;;;17.00;3.63;;;;;;;;;;10152171;29;20261;-67
2022/03/31 12:49:10;;;;;;;9.88;3.15;;;;;;;;;;10154582;29;20324;-68
2022/03/31 12:54:24;;;;;;;5.43;2.88;;;;;;;;;;10151831;29;20048;-67
2022/03/31 12:59:30;;;;;;;6.57;3.08;;;;;;;;;;10164515;29;20048;-67
2022/03/31 13:04:35;;;;;;;13.73;2.90;;;;;;;;;;10130535;29;20065;-66
2022/03/31 13:09:38;;;;;;;9.40;2.63;;;;;;;;;;10128703;29;20055;-68
2022/03/31 13:14:42;;;;;;;9.95;2.50;;;;;;;;;;10148892;29;20052;-67
2022/03/31 13:19:46;;;;;;;12.10;3.03;;;;;;;;;;10153443;29;20170;-68
2022/03/31 13:24:49;;;;;;;5.97;2.80;;;;;;;;;;10144326;29;20055;-66
2022/03/31 13:29:53;;;;;;;4.20;2.50;;;;;;;;;;10143595;29;20052;-68
2022/03/31 13:34:57;;;;;;;6.07;2.80;;;;;;;;;;10150671;29;20056;-66
2022/03/31 13:39:59;;;;;;;8.82;2.80;;;;;;;;;;10149544;29;20048;-68
2022/03/31 13:45:02;;;;;;;5.78;2.72;;;;;;;;;;10149371;29;20052;-69
2022/03/31 13:50:07;;;;;;;7.15;2.92;;;;;;;;;;10150588;29;20151;-67
2022/03/31 13:55:10;;;;;;;4.35;2.58;;;;;;;;;;10150324;29;20209;-66
2022/03/31 14:05:35;;;;;;;11.05;2.60;;;;;;;;;;10146053;29;20057;-67
2022/03/31 14:10:37;;;;;;;13.60;2.60;;;;;;;;;;10147481;29;20044;-66
2022/03/31 14:15:41;;;;;;;6.22;2.42;;;;;;;;;;10147042;29;20044;-65
2022/03/31 14:20:45;;;;;;;7.28;2.53;;;;;;;;;;10149644;29;20053;-67
2022/03/31 14:25:47;;;;;;;7.60;3.22;;;;;;;;;;10148963;29;20342;-67
2022/03/31 14:30:50;;;;;;;8.77;2.60;;;;;;;;;;10148378;29;20036;-66
2022/03/31 14:35:53;;;;;;;4.63;2.83;;;;;;;;;;10148810;29;20044;-67
2022/03/31 14:40:57;;;;;;;14.98;2.75;;;;;;;;;;10146876;29;20112;-68
2022/03/31 14:46:00;;;;;;;483.05;30.10;;;;;;;;;;10148004;29;20064;-69
2022/03/31 14:51:05;;;;;;;5.20;2.50;;;;;;;;;;10148537;29;20052;-66
2022/03/31 14:56:08;;;;;;;7.47;2.58;;;;;;;;;;10147948;29;20040;-69
2022/03/31 15:01:11;;;;;;;7.78;2.85;;;;;;;;;;10147036;29;20040;-72
2022/03/31 15:06:15;;;;;;;3.45;2.08;;;;;;;;;;10145318;29;20064;-66
2022/03/31 15:16:39;;;;;;;9.50;2.85;;;;;;;;;;10140882;29;20056;-67
2022/03/31 15:21:42;;;;;;;7.53;2.88;;;;;;;;;;10154045;29;20093;-69
2022/03/31 15:26:45;;;;;;;5.53;3.15;;;;;;;;;;10150715;29;20069;-68
2022/03/31 15:31:49;;;;;;;11.55;3.33;;;;;;;;;;10150657;29;20052;-67
2022/03/31 15:36:53;;;;;;;5.95;2.92;;;;;;;;;;10143723;29;20064;-66
2022/03/31 15:41:56;;;;;;;9.98;3.08;;;;;;;;;;10156005;29;20351;-67
2022/03/31 15:47:01;;;;;;;15.38;3.58;;;;;;;;;;10154141;29;20060;-68
2022/03/31 15:52:07;;;;;;;24.55;3.97;;;;;;;;;;10161360;29;20362;-67
2022/03/31 15:57:09;;;;;;;5.28;3.35;;;;;;;;;;10153692;29;20044;-68
2022/03/31 16:02:12;;;;;;;5.75;3.30;;;;;;;;;;10155035;29;20040;-66
2022/03/31 16:07:17;;;;;;;7.22;3.95;;;;;;;;;;10154011;29;20064;-67
2022/03/31 16:12:19;;;;;;;9.52;3.63;;;;;;;;;;10155284;29;20080;-66
2022/03/31 16:17:22;;;;;;;10.93;3.90;;;;;;;;;;10153206;29;20047;-69
2022/03/31 16:22:25;;;;;;;11.65;3.63;;;;;;;;;;10154125;29;20088;-68
2022/03/31 16:27:28;;;;;;;14.48;3.92;;;;;;;;;;10154902;29;21208;-68
2022/03/31 16:32:30;;;;;;;19.08;5.07;;;;;;;;;;10152075;29;20116;-66
2022/03/31 16:37:34;;;;;;;8.50;3.88;;;;;;;;;;10153639;29;20060;-67
2022/03/31 16:42:36;;;;;;;15.43;4.72;;;;;;;;;;10153118;29;20041;-67
2022/03/31 16:47:39;;;;;;;6.55;4.18;;;;;;;;;;10151832;29;20063;-68
2022/03/31 16:52:44;;;;;;;11.30;4.93;;;;;;;;;;10152645;29;20052;-68
2022/03/31 16:57:46;;;;;;;9.93;3.90;;;;;;;;;;10152752;29;20332;-67
2022/03/31 17:02:51;;;;;;;7.35;3.42;;;;;;;;;;10155024;29;20045;-67
2022/03/31 17:07:56;;;;;;;10.63;4.40;;;;;;;;;;10151544;29;20091;-67
2022/03/31 17:12:59;;;;;;;15.47;4.23;;;;;;;;;;10146718;29;20049;-69
2022/03/31 17:18:05;;;;;;;10.35;4.57;;;;;;;;;;10144911;29;20089;-68
2022/03/31 17:23:09;;;;;;;8.80;3.40;;;;;;;;;;10140671;29;20073;-67
2022/03/31 17:28:13;;;;;;;12.13;4.30;;;;;;;;;;10150477;29;20044;-69
2022/03/31 17:33:16;;;;;;;5.68;3.60;;;;;;;;;;10150473;29;20056;-68
2022/03/31 17:38:21;;;;;;;8.55;4.30;;;;;;;;;;10150914;29;20048;-66
2022/03/31 17:43:24;;;;;;;7.87;4.07;;;;;;;;;;10149907;29;20060;-68
2022/03/31 17:48:26;;;;;;;10.05;4.93;;;;;;;;;;10148354;29;20307;-67
2022/03/31 17:53:31;;;;;;;8.15;3.75;;;;;;;;;;10151918;29;20056;-68
2022/03/31 17:58:33;;;;;;;14.85;3.92;;;;;;;;;;10151134;29;20052;-69
2022/03/31 18:03:36;;;;;;;9.02;3.72;;;;;;;;;;10150434;29;20072;-67
2022/03/31 18:08:41;;;;;;;8.48;3.92;;;;;;;;;;10162546;29;20065;-68
2022/03/31 18:13:43;;;;;;;10.25;3.78;;;;;;;;;;10151627;29;20288;-68
2022/03/31 18:18:45;;;;;;;11.50;3.83;;;;;;;;;;10147963;29;20100;-69
2022/03/31 18:23:51;;;;;;;6.38;3.60;;;;;;;;;;10144611;29;20095;-68
2022/03/31 18:28:54;;;;;;;6.28;3.53;;;;;;;;;;10163180;29;20304;-68
2022/03/31 18:33:58;;;;;;;8.85;4.18;;;;;;;;;;10147431;29;20044;-70
2022/03/31 18:39:06;;;;;;;14.15;3.75;;;;;;;;;;10150444;29;20059;-67
2022/03/31 18:44:08;;;;;;;12.07;4.32;;;;;;;;;;10162648;29;20331;-67
2022/03/31 18:49:12;;;;;;;8.25;4.13;;;;;;;;;;10150086;29;20049;-68
2022/03/31 18:54:18;;;;;;;8.75;4.00;;;;;;;;;;10154638;29;20301;-68
2022/03/31 18:59:20;;;;;;;9.77;3.58;;;;;;;;;;10169434;29;20216;-67
2022/03/31 19:04:24;;;;;;;9.13;3.70;;;;;;;;;;10152745;29;20076;-67
2022/03/31 19:09:30;;;;;;;12.52;4.47;;;;;;;;;;10148486;29;20040;-68
2022/03/31 19:14:33;;;;;;;10.30;3.90;;;;;;;;;;10169088;29;20255;-67
2022/03/31 19:19:35;;;;;;;18.70;5.07;;;;;;;;;;10157198;29;20057;-67
2022/03/31 19:24:39;;;;;;;8.45;3.63;;;;;;;;;;10155971;29;20055;-68
2022/03/31 19:29:41;;;;;;;9.25;4.00;;;;;;;;;;10156852;29;20055;-68
2022/03/31 19:34:44;;;;;;;6.15;3.17;;;;;;;;;;10156771;29;20061;-68
2022/03/31 19:39:47;;;;;;;7.68;3.80;;;;;;;;;;10156845;29;20269;-69
2022/03/31 19:44:49;;;;;;;11.70;4.03;;;;;;;;;;10156005;29;20348;-68
2022/03/31 19:49:53;;;;;;;6.82;3.58;;;;;;;;;;10153792;29;20040;-67
2022/03/31 19:54:57;;;;;;;10.80;4.00;;;;;;;;;;10149572;29;20075;-68
2022/03/31 20:04:36;;;;;;;9.13;3.92;;;;;;;;;;10222735;27;20465;-68
2022/03/31 20:09:38;;;;;;;6.25;3.65;;;;;;;;;;10383255;28;20341;-69
2022/03/31 20:14:41;;;;;;;13.07;4.18;;;;;;;;;;10382707;28;20038;-69
2022/03/31 20:19:44;;;;;;;9.55;4.53;;;;;;;;;;10382235;28;20038;-68
2022/03/31 20:24:47;;;;;;;8.32;4.70;;;;;;;;;;10381466;28;20233;-69
2022/03/31 20:29:49;;;;;;;6.80;4.15;;;;;;;;;;10372309;28;20399;-67
2022/03/31 20:34:53;;;;;;;8.95;4.07;;;;;;;;;;10377624;28;20057;-68
2022/03/31 20:39:58;;;;;;;8.02;4.53;;;;;;;;;;10380014;28;20221;-69
2022/03/31 20:45:00;;;;;;;8.20;4.13;;;;;;;;;;10381181;28;20241;-69
2022/03/31 20:50:06;;;;;;;14.30;4.45;;;;;;;;;;10380506;28;20042;-68
2022/03/31 20:55:09;;;;;;;9.52;3.80;;;;;;;;;;10376881;28;20314;-68
2022/03/31 21:00:14;;;;;;;7.78;4.45;;;;;;;;;;10363576;28;20042;-67
2022/03/31 21:05:17;;;;;;;8.00;4.28;;;;;;;;;;10362321;28;20046;-67
2022/03/31 21:10:20;;;;;;;7.88;4.20;;;;;;;;;;10368983;28;20054;-68
2022/03/31 21:15:22;;;;;;;9.02;5.07;;;;;;;;;;10345546;28;20093;-67
2022/03/31 21:20:27;;;;;;;13.80;6.00;;;;;;;;;;10346026;28;20042;-66
2022/03/31 21:25:31;;;;;;;12.67;6.13;;;;;;;;;;10343005;28;20330;-66
2022/03/31 21:30:35;;;;;;;14.23;6.30;;;;;;;;;;10340336;28;20050;-68
2022/03/31 21:35:38;;;;;;;16.48;6.40;;;;;;;;;;10337759;28;20053;-67
2022/03/31 21:40:41;;;;;;;15.52;5.05;;;;;;;;;;10323101;28;20377;-67
2022/03/31 21:45:44;;;;;;;11.43;5.60;;;;;;;;;;10315288;28;20057;-67
2022/03/31 21:50:48;;;;;;;11.40;5.25;;;;;;;;;;10318143;28;20042;-68
2022/03/31 21:55:51;;;;;;;11.38;5.75;;;;;;;;;;10345242;28;20050;-68
2022/03/31 22:01:02;;;;;;;10.00;5.50;;;;;;;;;;10314028;28;20536;-67
2022/03/31 22:06:07;;;;;;;14.20;5.32;;;;;;;;;;10335266;28;20065;-66
2022/03/31 22:16:30;;;;;;;8.73;4.80;;;;;;;;;;10327033;28;20038;-67
2022/03/31 22:21:33;;;;;;;13.30;5.75;;;;;;;;;;10312289;28;20062;-67
2022/03/31 22:26:54;;;;;;;11.18;4.85;;;;;;;;;;10338509;28;20049;-66
2022/03/31 22:31:57;;;;;;;9.48;5.13;;;;;;;;;;10312388;28;20065;-66
2022/03/31 22:37:02;;;;;;;9.27;5.07;;;;;;;;;;10337008;28;20044;-66
2022/03/31 22:42:05;;;;;;;8.70;4.55;;;;;;;;;;10312874;28;20077;-66
2022/03/31 22:47:08;;;;;;;9.65;4.82;;;;;;;;;;10311168;28;20051;-67
2022/03/31 22:52:14;;;;;;;11.00;4.72;;;;;;;;;;10340823;28;20042;-67
2022/03/31 22:57:16;;;;;;;9.20;4.68;;;;;;;;;;10320607;28;20113;-66
2022/03/31 23:02:22;;;;;;;14.07;4.35;;;;;;;;;;10310496;28;20093;-67
2022/03/31 23:07:27;;;;;;;9.32;4.28;;;;;;;;;;10326620;28;20222;-67
2022/03/31 23:12:29;;;;;;;8.03;4.70;;;;;;;;;;10328592;28;20322;-67
2022/03/31 23:17:32;;;;;;;6.20;4.57;;;;;;;;;;10310772;28;20207;-66
2022/03/31 23:22:36;;;;;;;8.00;3.95;;;;;;;;;;10318531;28;20058;-67
2022/03/31 23:27:38;;;;;;;6.45;3.67;;;;;;;;;;10329124;28;20051;-68
2022/03/31 23:32:40;;;;;;;20.92;4.70;;;;;;;;;;10310591;28;20085;-67
2022/03/31 23:37:44;;;;;;;11.60;4.53;;;;;;;;;;10322636;28;20042;-66
2022/03/31 23:42:46;;;;;;;10.45;4.45;;;;;;;;;;10340678;28;20058;-68
2022/03/31 23:47:49;;;;;;;8.23;4.10;;;;;;;;;;10310351;28;20137;-67
2022/03/31 23:52:53;;;;;;;12.68;4.30;;;;;;;;;;10310287;28;20055;-67
2022/03/31 23:57:55;;;;;;;10.73;4.45;;;;;;;;;;10319749;28;20050;-67
